createdAt,value
2023-04-27T00:00:44.106Z,94706.91
2023-04-27T00:03:47.495Z,94709.84
2023-04-27T00:06:51.669Z,94706.91
2023-04-27T00:09:56.223Z,94714.09
2023-04-27T00:12:59.318Z,94714.88
2023-04-27T00:16:03.964Z,94720.19
2023-04-27T00:19:08.704Z,94714.09
2023-04-27T00:22:12.172Z,94718.63
2023-04-27T00:25:16.685Z,94719.69
2023-04-27T00:28:19.723Z,94717.03
2023-04-27T00:31:22.783Z,94723.16
2023-04-27T00:34:25.900Z,94710.75
2023-04-27T00:37:28.961Z,94721.88
2023-04-27T00:40:33.420Z,94730.34
2023-04-27T00:43:43.775Z,94726.91
2023-04-27T00:46:46.871Z,94735.97
2023-04-27T00:49:50.589Z,94731.44
2023-04-27T00:52:53.654Z,94737.53
2023-04-27T00:55:58.769Z,94725.31
2023-04-27T00:59:02.116Z,94733.00
2023-04-27T01:02:05.244Z,94736.75
2023-04-27T01:05:09.059Z,94733.63
2023-04-27T01:08:12.112Z,94735.97
2023-04-27T01:11:16.911Z,94738.94
2023-04-27T01:14:19.938Z,94746.91
2023-04-27T01:17:23.267Z,94747.19
2023-04-27T01:20:27.256Z,94743.28
2023-04-27T01:23:31.731Z,94745.31
2023-04-27T01:26:35.095Z,94735.78
2023-04-27T01:29:38.228Z,94745.31
2023-04-27T01:32:41.604Z,94731.69
2023-04-27T01:35:44.748Z,94752.50
2023-04-27T01:38:49.213Z,94752.34
2023-04-27T01:41:52.278Z,94739.81
2023-04-27T01:44:55.395Z,94757.34
2023-04-27T01:47:58.596Z,94756.25
2023-04-27T01:51:02.065Z,94755.00
2023-04-27T01:54:06.665Z,94755.97
2023-04-27T01:57:09.759Z,94752.34
2023-04-27T02:00:14.045Z,94759.22
2023-04-27T02:03:17.347Z,94767.22
2023-04-27T02:06:20.634Z,94755.00
2023-04-27T02:09:25.210Z,94758.28
2023-04-27T02:12:28.368Z,94759.84
2023-04-27T02:15:31.437Z,94749.03
2023-04-27T02:21:38.348Z,94768.91
2023-04-27T02:24:42.865Z,94767.03
2023-04-27T02:27:45.894Z,94762.03
2023-04-27T02:30:49.625Z,94747.31
2023-04-27T02:33:52.802Z,94762.97
2023-04-27T02:36:55.845Z,94762.16
2023-04-27T02:40:00.947Z,94758.72
2023-04-27T02:43:04.053Z,94749.13
2023-04-27T02:46:07.334Z,94762.72
2023-04-27T02:49:10.428Z,94765.41
2023-04-27T02:52:13.744Z,94766.22
2023-04-27T02:55:18.387Z,94771.53
2023-04-27T02:58:22.775Z,94779.81
2023-04-27T03:01:25.919Z,94778.06
2023-04-27T03:04:29.111Z,94780.59
2023-04-27T03:07:32.203Z,94780.09
2023-04-27T03:10:36.720Z,94787.00
2023-04-27T03:13:42.601Z,94786.28
2023-04-27T03:16:45.867Z,94783.31
2023-04-27T03:19:49.586Z,94796.31
2023-04-27T03:22:52.617Z,94792.38
2023-04-27T03:25:57.089Z,94799.28
2023-04-27T03:29:00.185Z,94795.03
2023-04-27T03:32:04.556Z,94806.28
2023-04-27T03:35:09.175Z,94810.53
2023-04-27T03:38:12.304Z,94807.06
2023-04-27T03:41:16.766Z,94812.22
2023-04-27T03:44:19.887Z,94810.34
2023-04-27T03:47:22.991Z,94818.59
2023-04-27T03:50:26.425Z,94815.94
2023-04-27T03:53:30.747Z,94822.06
2023-04-27T03:56:35.298Z,94827.66
2023-04-27T03:59:38.279Z,94817.81
2023-04-27T04:02:42.338Z,94831.91
2023-04-27T04:05:47.317Z,94841.16
2023-04-27T04:08:50.504Z,94841.66
2023-04-27T04:11:54.934Z,94840.72
2023-04-27T04:18:01.275Z,94842.59
2023-04-27T04:21:04.984Z,94854.38
2023-04-27T04:24:10.296Z,94853.72
2023-04-27T04:27:14.744Z,94870.59
2023-04-27T04:30:18.142Z,94861.44
2023-04-27T04:33:21.608Z,94851.81
2023-04-27T04:36:24.695Z,94878.78
2023-04-27T04:39:32.103Z,94876.59
2023-04-27T04:42:38.074Z,94881.13
2023-04-27T04:45:42.119Z,94883.31
2023-04-27T04:48:45.095Z,94882.84
2023-04-27T04:51:48.116Z,94878.81
2023-04-27T04:54:52.984Z,94873.78
2023-04-27T04:57:57.478Z,94897.50
2023-04-27T05:01:00.522Z,94904.97
2023-04-27T05:04:03.790Z,94891.50
2023-04-27T05:07:07.258Z,94910.97
2023-04-27T05:10:10.682Z,94911.47
2023-04-27T05:13:15.186Z,94917.56
2023-04-27T05:16:18.280Z,94914.13
2023-04-27T05:19:21.581Z,94921.31
2023-04-27T05:22:24.576Z,94912.84
2023-04-27T05:25:27.618Z,94911.47
2023-04-27T05:28:32.044Z,94919.75
2023-04-27T05:31:35.130Z,94918.78
2023-04-27T05:34:38.206Z,94920.53
2023-04-27T05:37:41.343Z,94931.78
2023-04-27T05:40:44.564Z,94924.69
2023-04-27T05:43:49.120Z,94928.72
2023-04-27T05:46:52.179Z,94927.16
2023-04-27T05:49:55.594Z,94920.06
2023-04-27T05:52:58.644Z,94925.09
2023-04-27T05:56:04.481Z,94931.00
2023-04-27T05:59:08.998Z,94918.59
2023-04-27T06:02:12.039Z,94928.91
2023-04-27T06:05:15.313Z,94928.41
2023-04-27T06:08:18.468Z,94941.72
2023-04-27T06:11:22.209Z,94932.66
2023-04-27T06:14:26.861Z,94930.28
2023-04-27T06:17:29.889Z,94926.94
2023-04-27T06:20:33.066Z,94931.56
2023-04-27T06:23:36.163Z,94930.03
2023-04-27T06:26:39.211Z,94926.34
2023-04-27T06:29:43.659Z,94924.88
2023-04-27T06:32:46.653Z,94921.22
2023-04-27T06:35:49.875Z,94924.56
2023-04-27T06:38:55.711Z,94929.28
2023-04-27T06:41:58.849Z,94926.81
2023-04-27T06:45:04.208Z,94927.00
2023-04-27T06:48:07.445Z,94923.84
2023-04-27T06:51:10.638Z,94919.63
2023-04-27T06:54:13.845Z,94918.63
2023-04-27T06:57:16.965Z,94917.94
2023-04-27T07:00:21.864Z,94932.09
2023-04-27T07:03:25.053Z,94929.63
2023-04-27T07:06:28.828Z,94922.44
2023-04-27T07:09:32.666Z,94923.72
2023-04-27T07:12:36.479Z,94919.88
2023-04-27T07:15:40.962Z,94919.19
2023-04-27T07:18:44.171Z,94921.84
2023-04-27T07:21:47.276Z,94915.34
2023-04-27T07:24:50.378Z,94915.81
2023-04-27T07:27:53.645Z,94910.50
2023-04-27T07:30:59.026Z,94912.84
2023-04-27T07:34:02.088Z,94912.84
2023-04-27T07:37:05.639Z,94914.13
2023-04-27T07:40:16.627Z,94914.91
2023-04-27T07:43:20.375Z,94911.25
2023-04-27T07:46:26.389Z,94904.34
2023-04-27T07:49:29.547Z,94915.00
2023-04-27T07:52:32.569Z,94912.13
2023-04-27T07:55:36.207Z,94910.25
2023-04-27T07:58:39.339Z,94917.44
2023-04-27T08:01:43.792Z,94908.38
2023-04-27T08:04:47.236Z,94909.66
2023-04-27T08:07:54.183Z,94905.44
2023-04-27T08:10:57.661Z,94917.06
2023-04-27T08:14:00.689Z,94909.56
2023-04-27T08:17:05.157Z,94917.84
2023-04-27T08:20:09.883Z,94904.94
2023-04-27T08:23:13.178Z,94917.06
2023-04-27T08:26:16.690Z,94914.09
2023-04-27T08:29:27.789Z,94920.22
2023-04-27T08:32:33.211Z,94920.81
2023-04-27T08:35:36.315Z,94910.47
2023-04-27T08:38:39.313Z,94909.97
2023-04-27T08:44:46.844Z,94903.88
2023-04-27T08:47:51.773Z,94909.75
2023-04-27T08:50:57.193Z,94921.50
2023-04-27T08:54:00.702Z,94913.63
2023-04-27T08:57:10.669Z,94913.94
2023-04-27T09:00:15.221Z,94907.06
2023-04-27T09:03:25.839Z,94916.13
2023-04-27T09:06:32.799Z,94910.00
2023-04-27T09:09:35.868Z,94909.22
2023-04-27T09:12:38.936Z,94913.28
2023-04-27T09:15:48.272Z,94907.66
2023-04-27T09:18:53.496Z,94906.56
2023-04-27T09:22:15.559Z,94898.78
2023-04-27T09:25:25.696Z,94893.44
2023-04-27T09:28:30.940Z,94877.72
2023-04-27T09:31:34.521Z,94893.81
2023-04-27T09:34:42.239Z,94893.81
2023-04-27T09:37:45.816Z,94881.25
2023-04-27T09:40:49.578Z,94877.66
2023-04-27T09:43:56.339Z,94882.22
2023-04-27T09:47:01.428Z,94876.72
2023-04-27T09:50:07.245Z,94859.31
2023-04-27T09:53:13.864Z,94872.47
2023-04-27T09:56:29.182Z,94871.56
2023-04-27T09:59:56.758Z,94859.53
2023-04-27T10:03:09.521Z,94871.13
2023-04-27T10:07:06.023Z,94856.88
2023-04-27T10:10:18.691Z,94862.56
2023-04-27T10:13:23.988Z,94855.59
2023-04-27T10:16:27.063Z,94855.16
2023-04-27T10:19:30.345Z,94850.75
2023-04-27T10:22:42.231Z,94852.34
2023-04-27T10:25:48.005Z,94861.72
2023-04-27T10:28:58.995Z,94864.69
2023-04-27T10:32:07.836Z,94863.09
2023-04-27T10:35:11.094Z,94859.97
2023-04-27T10:38:19.632Z,94852.13
2023-04-27T10:41:23.629Z,94863.72
2023-04-27T10:44:28.874Z,94861.84
2023-04-27T10:47:40.308Z,94855.25
2023-04-27T10:50:44.915Z,94849.94
2023-04-27T10:53:53.827Z,94854.47
2023-04-27T10:57:04.160Z,94859.00
2023-04-27T11:00:10.303Z,94855.84
2023-04-27T11:03:16.823Z,94856.66
2023-04-27T11:06:20.258Z,94854.00
2023-04-27T11:09:31.188Z,94849.56
2023-04-27T11:12:34.342Z,94858.22
2023-04-27T11:15:45.468Z,94857.44
2023-04-27T11:18:48.728Z,94843.44
2023-04-27T11:21:51.783Z,94848.16
2023-04-27T11:24:56.467Z,94847.38
2023-04-27T11:27:59.499Z,94852.81
2023-04-27T11:31:02.945Z,94859.09
2023-04-27T11:34:07.590Z,94861.75
2023-04-27T11:37:18.360Z,94865.81
2023-04-27T11:40:24.585Z,94849.38
2023-04-27T11:43:27.925Z,94857.03
2023-04-27T11:46:31.356Z,94866.91
2023-04-27T11:49:34.561Z,94854.50
2023-04-27T11:52:39.393Z,94865.81
2023-04-27T11:55:45.103Z,94879.91
2023-04-27T11:58:48.422Z,94872.69
2023-04-27T12:01:52.874Z,94871.91
2023-04-27T12:04:56.092Z,94868.47
2023-04-27T12:07:59.530Z,94878.31
2023-04-27T12:11:04.040Z,94879.09
2023-04-27T12:14:07.360Z,94873.00
2023-04-27T12:17:10.574Z,94874.69
2023-04-27T12:20:14.706Z,94878.63
2023-04-27T12:23:17.716Z,94884.72
2023-04-27T12:26:22.263Z,94849.06
2023-04-27T12:29:25.514Z,94874.41
2023-04-27T12:32:28.782Z,94865.56
2023-04-27T12:35:32.206Z,94878.16
2023-04-27T12:38:35.344Z,94883.47
2023-04-27T12:41:39.784Z,94871.56
2023-04-27T12:44:42.862Z,94875.78
2023-04-27T12:48:00.842Z,94881.09
2023-04-27T12:51:06.795Z,94873.72
2023-04-27T12:54:11.318Z,94878.75
2023-04-27T12:57:15.796Z,94875.59
2023-04-27T13:00:19.243Z,94885.16
2023-04-27T13:03:22.358Z,94876.41
2023-04-27T13:06:27.156Z,94876.69
2023-04-27T13:09:30.297Z,94872.16
2023-04-27T13:12:34.951Z,94877.47
2023-04-27T13:15:38.828Z,94874.81
2023-04-27T13:18:48.469Z,94878.06
2023-04-27T13:21:51.663Z,94869.00
2023-04-27T13:24:54.761Z,94867.94
2023-04-27T13:27:59.334Z,94866.28
2023-04-27T13:31:02.463Z,94865.69
2023-04-27T13:34:06.183Z,94859.00
2023-04-27T13:37:09.414Z,94869.66
2023-04-27T13:40:13.029Z,94865.69
2023-04-27T13:43:17.533Z,94871.22
2023-04-27T13:46:20.642Z,94876.53
2023-04-27T13:49:24.067Z,94870.91
2023-04-27T13:52:27.188Z,94881.53
2023-04-27T13:55:30.324Z,94876.31
2023-04-27T13:58:34.866Z,94882.34
2023-04-27T14:01:38.175Z,94885.28
2023-04-27T14:04:41.268Z,94884.50
2023-04-27T14:07:44.366Z,94883.72
2023-04-27T14:10:47.734Z,94884.81
2023-04-27T14:13:52.212Z,94886.38
2023-04-27T14:16:55.402Z,94884.81
2023-04-27T14:19:58.547Z,94889.34
2023-04-27T14:23:02.024Z,94895.44
2023-04-27T14:26:05.895Z,94898.91
2023-04-27T14:29:10.373Z,94894.66
2023-04-27T14:32:13.734Z,94905.31
2023-04-27T14:35:16.936Z,94910.63
2023-04-27T14:38:19.982Z,94904.22
2023-04-27T14:41:23.041Z,94908.44
2023-04-27T14:44:27.465Z,94914.06
2023-04-27T14:47:30.616Z,94918.28
2023-04-27T14:50:33.925Z,94917.31
2023-04-27T14:53:37.007Z,94919.09
2023-04-27T14:56:40.149Z,94913.56
2023-04-27T14:59:44.647Z,94912.97
2023-04-27T15:02:47.788Z,94927.25
2023-04-27T15:05:51.649Z,94923.50
2023-04-27T15:08:55.104Z,94921.75
2023-04-27T15:11:58.233Z,94933.84
2023-04-27T15:15:02.799Z,94932.25
2023-04-27T15:18:06.196Z,94930.22
2023-04-27T15:21:09.347Z,94937.28
2023-04-27T15:24:12.417Z,94938.06
2023-04-27T15:27:15.810Z,94942.78
2023-04-27T15:30:20.240Z,94938.84
2023-04-27T15:33:23.535Z,94939.34
2023-04-27T15:36:28.457Z,94952.75
2023-04-27T15:39:31.798Z,94953.88
2023-04-27T15:42:34.931Z,94952.50
2023-04-27T15:45:39.427Z,94967.38
2023-04-27T15:48:42.571Z,94966.09
2023-04-27T15:51:45.676Z,94960.59
2023-04-27T15:54:48.887Z,94972.22
2023-04-27T15:57:52.020Z,94970.63
2023-04-27T16:00:56.550Z,94971.13
2023-04-27T16:03:59.729Z,94980.69
2023-04-27T16:07:02.860Z,94980.28
2023-04-27T16:10:07.193Z,94973.22
2023-04-27T16:13:10.432Z,94987.00
2023-04-27T16:16:15.229Z,94985.28
2023-04-27T16:19:19.178Z,94989.72
2023-04-27T16:22:22.379Z,94988.94
2023-04-27T16:25:25.437Z,94986.91
2023-04-27T16:28:28.588Z,94985.97
2023-04-27T16:31:33.382Z,94994.13
2023-04-27T16:34:37.636Z,95000.53
2023-04-27T16:37:40.837Z,94999.44
2023-04-27T16:40:43.861Z,95003.88
2023-04-27T16:43:46.939Z,95015.53
2023-04-27T16:46:52.126Z,95017.34
2023-04-27T16:50:06.965Z,95016.34
2023-04-27T16:53:13.755Z,95023.69
2023-04-27T16:56:16.833Z,95037.47
2023-04-27T16:59:19.907Z,95042.00
2023-04-27T17:02:25.672Z,95037.75
2023-04-27T17:05:29.210Z,95046.84
2023-04-27T17:08:32.294Z,95046.84
2023-04-27T17:11:35.481Z,95044.47
2023-04-27T17:14:38.601Z,95046.34
2023-04-27T17:17:43.054Z,95046.66
2023-04-27T17:20:46.186Z,95053.84
2023-04-27T17:23:50.728Z,95059.94
2023-04-27T17:26:53.802Z,95070.59
2023-04-27T17:29:57.975Z,95064.50
2023-04-27T17:33:03.308Z,95071.38
2023-04-27T17:36:06.960Z,95078.84
2023-04-27T17:39:09.997Z,95078.84
2023-04-27T17:42:13.190Z,95075.69
2023-04-27T17:45:16.523Z,95085.25
2023-04-27T17:48:21.173Z,95090.88
2023-04-27T17:51:24.515Z,95097.78
2023-04-27T17:54:29.957Z,95098.47
2023-04-27T17:57:33.638Z,95118.69
2023-04-27T18:00:36.859Z,95131.97
2023-04-27T18:03:42.198Z,95122.31
2023-04-27T18:06:45.440Z,95129.19
2023-04-27T18:09:48.508Z,95134.22
2023-04-27T18:12:51.601Z,95133.84
2023-04-27T18:15:54.707Z,95136.03
2023-04-27T18:18:59.397Z,95150.97
2023-04-27T18:22:03.469Z,95148.91
2023-04-27T18:25:07.292Z,95150.00
2023-04-27T18:28:11.183Z,95158.78
2023-04-27T18:31:17.977Z,95160.06
2023-04-27T18:34:22.419Z,95163.31
2023-04-27T18:37:25.537Z,95168.16
2023-04-27T18:40:28.634Z,95175.81
2023-04-27T18:43:32.058Z,95172.47
2023-04-27T18:46:35.365Z,95178.66
2023-04-27T18:49:39.797Z,95180.31
2023-04-27T18:52:42.818Z,95187.63
2023-04-27T18:55:45.884Z,95186.34
2023-04-27T18:58:49.179Z,95194.09
2023-04-27T19:01:52.435Z,95189.53
2023-04-27T19:05:11.518Z,95194.75
2023-04-27T19:08:15.825Z,95198.69
2023-04-27T19:11:22.389Z,95203.13
2023-04-27T19:14:25.919Z,95200.47
2023-04-27T19:17:29.066Z,95207.38
2023-04-27T19:20:33.741Z,95208.16
2023-04-27T19:23:36.905Z,95211.91
2023-04-27T19:26:40.357Z,95211.63
2023-04-27T19:29:51.402Z,95212.47
2023-04-27T19:32:54.628Z,95220.75
2023-04-27T19:35:59.240Z,95224.50
2023-04-27T19:39:02.305Z,95222.94
2023-04-27T19:42:05.530Z,95219.00
2023-04-27T19:45:09.802Z,95222.16
2023-04-27T19:48:12.940Z,95228.25
2023-04-27T19:51:17.460Z,95228.56
2023-04-27T19:54:20.509Z,95225.91
2023-04-27T19:57:23.691Z,95229.34
2023-04-27T20:00:26.942Z,95236.84
2023-04-27T20:03:30.390Z,95236.03
2023-04-27T20:06:35.187Z,95237.91
2023-04-27T20:09:38.297Z,95234.97
2023-04-27T20:12:55.236Z,95240.78
2023-04-27T20:16:00.171Z,95237.31
2023-04-27T20:19:05.345Z,95244.50
2023-04-27T20:22:09.879Z,95242.94
2023-04-27T20:25:14.736Z,95237.13
2023-04-27T20:28:18.066Z,95240.28
2023-04-27T20:31:21.393Z,95236.53
2023-04-27T20:34:24.484Z,95240.28
2023-04-27T20:37:29.316Z,95243.81
2023-04-27T20:40:32.638Z,95238.47
2023-04-27T20:43:39.179Z,95248.34
2023-04-27T20:46:42.300Z,95248.91
2023-04-27T20:49:45.411Z,95248.69
2023-04-27T20:52:49.903Z,95252.44
2023-04-27T20:55:53.132Z,95243.19
2023-04-27T20:58:56.271Z,95247.72
2023-04-27T21:01:59.371Z,95248.78
2023-04-27T21:05:02.559Z,95250.47
2023-04-27T21:08:07.158Z,95252.03
2023-04-27T21:11:10.459Z,95246.72
2023-04-27T21:14:13.684Z,95250.19
2023-04-27T21:17:16.894Z,95250.47
2023-04-27T21:20:20.277Z,95248.09
2023-04-27T21:23:24.741Z,95250.75
2023-04-27T21:26:27.861Z,95248.41
2023-04-27T21:29:31.109Z,95253.19
2023-04-27T21:32:34.269Z,95252.94
2023-04-27T21:35:37.345Z,95253.97
2023-04-27T21:38:41.913Z,95254.28
2023-04-27T21:41:45.038Z,95256.94
2023-04-27T21:44:48.056Z,95255.34
2023-04-27T21:47:51.216Z,95259.09
2023-04-27T21:50:54.414Z,95250.63
2023-04-27T21:53:59.128Z,95257.53
2023-04-27T21:57:02.320Z,95255.94
2023-04-27T22:00:13.826Z,95255.16
2023-04-27T22:03:17.667Z,95255.94
2023-04-27T22:06:20.980Z,95252.78
2023-04-27T22:09:25.588Z,95258.13
2023-04-27T22:12:28.671Z,95250.81
2023-04-27T22:15:31.770Z,95259.97
2023-04-27T22:18:34.891Z,95267.97
2023-04-27T22:21:37.937Z,95260.88
2023-04-27T22:24:42.493Z,95261.84
2023-04-27T22:27:45.789Z,95264.03
2023-04-27T22:30:55.883Z,95256.03
2023-04-27T22:33:59.776Z,95262.94
2023-04-27T22:37:03.315Z,95260.88
2023-04-27T22:40:09.838Z,95258.28
2023-04-27T22:43:12.939Z,95260.06
2023-04-27T22:46:16.025Z,95254.25
2023-04-27T22:49:19.073Z,95256.13
2023-04-27T22:52:24.663Z,95244.97
2023-04-27T22:55:29.329Z,95242.91
2023-04-27T22:58:32.498Z,95258.28
2023-04-27T23:01:35.756Z,95249.22
2023-04-27T23:04:41.185Z,95247.63
2023-04-27T23:07:46.364Z,95244.97
2023-04-27T23:10:51.124Z,95242.31
2023-04-27T23:13:54.756Z,95236.00
2023-04-27T23:16:57.906Z,95238.06
2023-04-27T23:20:02.597Z,95234.94
2023-04-27T23:23:06.300Z,95236.50
2023-04-27T23:26:15.133Z,95231.69
2023-04-27T23:29:18.157Z,95232.75
2023-04-27T23:32:21.829Z,95235.41
2023-04-27T23:35:24.962Z,95240.75
2023-04-27T23:38:28.062Z,95239.94
2023-04-27T23:41:32.458Z,95242.59
2023-04-27T23:44:35.461Z,95240.84
2023-04-27T23:47:38.683Z,95241.31
2023-04-27T23:50:41.745Z,95244.28
2023-04-27T23:53:44.757Z,95247.13
2023-04-27T23:56:50.988Z,95250.38
2023-04-27T23:59:54.054Z,95248.50
